Weather at Andersen Air Force Base

Public forecast

Using degrees Celsius for public forecast. Weather courtesy of forecast.io.

Current aviation weather report (METAR) for Andersen Air Force Base

Report is more than 6 hours old.

2022/11/14 15:35 (retrieved 2 years ago)

PGUA 141535Z AUTO 07009KT 10SM FEW013 26/24 A2982 RMK AO2 RAB10E20 SLP088

Aviation forecast (TAF) for Andersen Air Force Base

Forecast is more than 12 hours old.

2023/02/22 18:12 (retrieved 1 year ago)

TAF TAF PGUA 221800Z 2218/2324 10015G20KT 9999 VCSH SCT012 QNH2981INS TEMPO 2218/2224 07015G25KT 4800 SHRA BKN012 TX27/2302Z TN24/2218Z